Time;durP1;ratioP1;P1;durP2;ratioP2;P2;SDS_P1;SDS_P2;PMS_P1;PMS_P2;Temp;Humidity;BMP_temperature;BMP_pressure;BME280_temperature;BME280_humidity;BME280_pressure;Samples;Min_cycle;Max_cycle;Signal;HPM_P1;HPM_P2
2022/05/26 00:00:23;;;;;;;35.40;6.18;;;;;;;15.78;80.50;101764.16;6178185;23;20334;-61
2022/05/26 00:02:48;;;;;;;30.67;6.05;;;;;;;15.81;80.20;101755.19;6177903;23;20005;-60
2022/05/26 00:05:14;;;;;;;28.65;5.65;;;;;;;15.75;80.70;101751.00;6179381;23;20001;-59
2022/05/26 00:07:39;;;;;;;30.17;5.40;;;;;;;15.91;79.97;101760.06;6178406;23;20008;-59
2022/05/26 00:10:05;;;;;;;31.77;6.30;;;;;;;15.88;80.17;101765.50;6178253;23;20009;-60
2022/05/26 00:12:32;;;;;;;35.15;5.53;;;;;;;15.84;80.23;101763.03;6178966;23;20032;-61
2022/05/26 00:14:57;;;;;;;30.77;6.07;;;;;;;15.87;80.25;101761.09;6179664;23;20011;-59
2022/05/26 00:17:22;;;;;;;31.33;5.82;;;;;;;15.88;80.19;101754.88;6179208;23;20017;-61
2022/05/26 00:19:48;;;;;;;34.97;6.20;;;;;;;15.82;80.24;101762.22;6178828;23;20001;-60
2022/05/26 00:22:14;;;;;;;28.60;5.00;;;;;;;15.89;80.06;101753.94;6178594;23;20055;-60
2022/05/26 00:24:41;;;;;;;38.80;6.15;;;;;;;15.87;80.08;101763.75;6177941;23;20005;-60
2022/05/26 00:27:06;;;;;;;34.67;6.10;;;;;;;15.84;80.23;101758.59;6179060;23;20032;-61
2022/05/26 00:29:34;;;;;;;27.95;6.10;;;;;;;15.89;80.10;101761.91;6178872;23;20012;-60
2022/05/26 00:31:59;;;;;;;30.05;6.18;;;;;;;15.80;80.55;101772.91;6179135;23;20005;-60
2022/05/26 00:34:25;;;;;;;40.15;5.45;;;;;;;15.81;80.15;101773.81;6179205;23;20445;-60
2022/05/26 00:36:50;;;;;;;45.08;6.55;;;;;;;15.78;80.42;101772.97;6151864;23;20029;-60
2022/05/26 00:39:24;;;;;;;28.35;5.65;;;;;;;15.83;80.32;101769.28;6176955;23;20008;-60
2022/05/26 00:42:01;;;;;;;42.50;6.25;;;;;;;15.81;80.36;101779.13;6177958;23;20012;-60
2022/05/26 00:44:30;;;;;;;41.92;6.38;;;;;;;15.82;80.18;101775.53;6178230;23;20087;-60
2022/05/26 00:47:01;;;;;;;;;;;;;;;15.74;80.68;101782.03;6178926;23;20005;-60
2022/05/26 00:49:51;;;;;;;27.10;4.80;;;;;;;15.82;80.31;101780.84;6178151;23;19950;-60
2022/05/26 00:52:20;;;;;;;34.53;5.20;;;;;;;15.88;80.12;101772.63;6178167;23;20076;-60
2022/05/26 00:54:47;;;;;;;32.45;6.07;;;;;;;15.91;80.02;101783.13;6177624;23;20011;-60
2022/05/26 00:57:16;;;;;;;35.63;6.18;;;;;;;15.83;80.28;101778.13;6151722;23;20096;-59
2022/05/26 00:59:57;;;;;;;29.90;5.38;;;;;;;15.93;79.73;101783.94;6177472;23;20035;-61
2022/05/26 01:02:26;;;;;;;32.33;6.43;;;;;;;15.83;80.24;101786.09;6177752;23;20488;-63
2022/05/26 01:04:57;;;;;;;37.67;6.15;;;;;;;15.91;79.88;101797.28;6176390;23;20005;-60
2022/05/26 01:07:26;;;;;;;40.22;6.43;;;;;;;15.94;79.87;101795.41;6178062;23;20083;-61
2022/05/26 01:09:51;;;;;;;36.30;6.75;;;;;;;15.85;79.93;101792.22;6150606;23;20017;-61
2022/05/26 01:12:17;;;;;;;38.42;6.05;;;;;;;15.91;79.81;101791.97;6178938;23;20079;-59
2022/05/26 01:14:49;;;;;;;47.38;6.05;;;;;;;15.91;79.87;101807.91;6179204;23;20080;-61
2022/05/26 01:17:37;;;;;;;36.47;5.85;;;;;;;15.89;79.86;101798.25;6176265;23;20381;-59
2022/05/26 01:20:18;;;;;;;37.10;6.18;;;;;;;15.85;80.17;101805.50;6175593;23;20028;-62
2022/05/26 01:23:07;;;;;;;31.60;6.40;;;;;;;15.81;80.37;101800.38;6176913;23;20011;-60
2022/05/26 01:26:00;;;;;;;37.75;6.13;;;;;;;15.75;80.34;101799.69;6175158;23;20005;-62
2022/05/26 01:28:51;;;;;;;37.42;7.32;;;;;;;15.78;80.18;101809.34;6151447;23;20457;-61
2022/05/26 01:31:49;;;;;;;36.50;6.38;;;;;;;15.76;80.03;101804.09;6176627;23;20334;-62
2022/05/26 01:34:56;;;;;;;44.65;6.55;;;;;;;15.73;80.31;101804.22;6176638;23;20005;-61
2022/05/26 01:37:44;;;;;;;33.63;5.63;;;;;;;15.68;80.43;101808.81;6176921;23;20009;-61
2022/05/26 01:40:29;;;;;;;42.72;6.70;;;;;;;15.70;80.34;101816.75;6175231;23;20055;-62
2022/05/26 01:43:09;;;;;;;38.83;6.65;;;;;;;15.69;80.15;101815.03;6176891;23;20016;-60
2022/05/26 01:45:46;;;;;;;34.80;6.20;;;;;;;15.63;80.45;101814.31;6150839;23;20377;-60
2022/05/26 01:48:21;;;;;;;32.13;5.80;;;;;;;15.68;79.84;101819.44;6176811;23;20616;-61
2022/05/26 01:50:53;;;;;;;29.70;5.43;;;;;;;15.66;79.69;101816.84;6175436;23;20009;-62
2022/05/26 01:53:29;;;;;;;29.77;5.03;;;;;;;15.80;79.27;101820.75;6175290;23;20071;-61
2022/05/26 01:56:06;;;;;;;30.65;5.47;;;;;;;15.70;79.15;101819.41;6173749;23;20452;-62
2022/05/26 01:58:38;;;;;;;40.45;5.93;;;;;;;15.76;78.80;101822.69;6175937;23;20005;-61
2022/05/26 02:01:10;;;;;;;26.13;5.05;;;;;;;15.77;78.97;101824.41;6175961;23;20112;-63
2022/05/26 02:03:36;;;;;;;30.60;4.68;;;;;;;15.73;78.47;101824.59;6176739;23;20560;-64
2022/05/26 02:06:07;;;;;;;22.95;4.50;;;;;;;15.77;78.07;101829.72;6174683;23;20028;-60
2022/05/26 02:08:38;;;;;;;27.00;4.57;;;;;;;15.76;77.46;101829.78;6176653;23;20004;-62
2022/05/26 02:11:13;;;;;;;26.15;4.13;;;;;;;15.72;76.92;101831.72;6175831;23;20430;-62
2022/05/26 02:13:41;;;;;;;18.83;3.70;;;;;;;15.76;76.30;101843.06;6175848;23;20009;-61
2022/05/26 02:16:12;;;;;;;19.98;4.07;;;;;;;15.78;75.64;101846.53;6176006;23;20032;-61
2022/05/26 02:18:46;;;;;;;12.57;3.20;;;;;;;15.75;75.53;101839.53;6176000;23;20009;-61
2022/05/26 02:21:19;;;;;;;11.93;3.70;;;;;;;15.67;75.17;101836.34;6175864;23;20012;-61
2022/05/26 02:23:58;;;;;;;16.27;3.63;;;;;;;15.75;75.01;101847.50;6149669;23;20452;-63
2022/05/26 02:26:23;;;;;;;;;;;;;;;15.76;74.49;101837.75;6176963;23;20104;-61
2022/05/26 02:31:33;;;;;;;13.45;3.63;;;;;;;15.60;74.12;101846.34;6178611;23;20497;-62
2022/05/26 02:34:00;;;;;;;15.35;2.83;;;;;;;15.71;73.61;101858.34;6153105;23;20093;-61
2022/05/26 02:36:28;;;;;;;11.85;3.38;;;;;;;15.62;73.63;101864.88;6177746;23;20084;-62
2022/05/26 02:38:53;;;;;;;15.60;3.58;;;;;;;15.70;73.36;101869.88;6151077;23;20031;-61
2022/05/26 02:41:19;;;;;;;12.70;2.90;;;;;;;15.68;73.17;101869.09;6179575;23;20005;-61
2022/05/26 02:43:44;;;;;;;15.98;3.15;;;;;;;15.64;73.12;101863.00;6151908;23;20001;-61
2022/05/26 02:46:31;;;;;;;15.43;3.38;;;;;;;15.68;73.03;101866.44;6152457;23;20499;-61
2022/05/26 02:49:16;;;;;;;11.05;2.65;;;;;;;15.75;72.77;101870.56;6178732;23;20422;-61
2022/05/26 02:52:07;;;;;;;17.17;3.10;;;;;;;15.77;72.57;101871.34;6178183;23;20430;-61
2022/05/26 02:55:03;;;;;;;16.17;2.88;;;;;;;15.75;72.61;101875.88;6148536;23;20010;-62
2022/05/26 02:58:07;;;;;;;10.05;2.63;;;;;;;15.76;72.34;101878.50;6152091;23;20020;-61
2022/05/26 03:00:41;;;;;;;13.90;2.38;;;;;;;15.79;72.55;101877.50;6177122;23;20012;-61
2022/05/26 03:03:15;;;;;;;8.57;2.50;;;;;;;15.73;72.63;101877.72;6178317;23;20001;-62
2022/05/26 03:05:47;;;;;;;10.38;2.60;;;;;;;15.73;72.72;101878.59;6179272;23;20005;-62
2022/05/26 03:08:16;;;;;;;14.10;3.33;;;;;;;15.70;72.82;101883.16;6153476;23;20005;-61
2022/05/26 03:10:48;;;;;;;8.90;2.20;;;;;;;15.72;72.76;101882.19;6176584;23;20445;-61
2022/05/26 03:13:13;;;;;;;13.52;3.10;;;;;;;15.67;73.02;101889.47;6178263;23;20008;-61
2022/05/26 03:15:40;;;;;;;10.73;2.85;;;;;;;15.69;72.97;101879.66;6178429;23;20444;-62
2022/05/26 03:18:06;;;;;;;14.15;2.97;;;;;;;15.64;73.25;101884.28;6152096;23;20418;-63
2022/05/26 03:20:31;;;;;;;9.75;3.22;;;;;;;15.58;73.38;101890.69;6177504;23;20004;-60
2022/05/26 03:22:57;;;;;;;12.60;3.33;;;;;;;15.52;73.80;101889.13;6179674;23;20104;-60
2022/05/26 03:25:22;;;;;;;11.10;2.83;;;;;;;15.46;73.89;101891.16;6176965;23;20084;-60
2022/05/26 03:27:47;;;;;;;16.02;3.13;;;;;;;15.43;74.17;101896.56;6178322;23;20008;-61
2022/05/26 03:30:13;;;;;;;8.50;3.10;;;;;;;15.41;74.09;101896.63;6177521;23;20380;-61
2022/05/26 03:32:41;;;;;;;13.55;2.92;;;;;;;15.40;74.23;101892.25;6178846;23;20008;-61
2022/05/26 03:40:46;;;;;;;10.95;3.28;;;;;;;15.50;74.17;101892.78;6146752;23;20012;-62
2022/05/26 03:43:12;;;;;;;13.18;3.42;;;;;;;15.51;74.29;101897.16;6177854;23;20001;-61
2022/05/26 03:45:38;;;;;;;10.57;2.85;;;;;;;15.49;74.77;101896.34;6176243;23;20371;-61
2022/05/26 03:48:04;;;;;;;14.82;3.10;;;;;;;15.43;74.83;101896.56;6176048;23;20442;-61
2022/05/26 03:50:30;;;;;;;13.60;3.30;;;;;;;15.32;75.56;101895.19;6178441;23;20450;-61
2022/05/26 03:52:56;;;;;;;13.23;3.17;;;;;;;15.29;75.43;101900.59;6176992;23;20061;-60
2022/05/26 03:55:22;;;;;;;14.85;3.40;;;;;;;15.25;76.00;101909.63;6177345;23;20055;-60
2022/05/26 03:57:48;;;;;;;11.80;3.22;;;;;;;15.24;75.92;101908.78;6177858;23;20067;-62
2022/05/26 04:00:16;;;;;;;13.02;3.42;;;;;;;15.20;75.79;101911.59;6178647;23;20350;-61
2022/05/26 04:02:41;;;;;;;17.15;3.53;;;;;;;15.18;75.92;101914.28;6178524;23;20001;-61
2022/05/26 04:05:08;;;;;;;12.85;3.05;;;;;;;15.15;76.36;101923.22;6178047;23;20008;-61
2022/05/26 04:07:34;;;;;;;13.25;3.33;;;;;;;15.15;76.23;101922.38;6177639;23;20457;-61
2022/05/26 04:10:02;;;;;;;13.85;3.10;;;;;;;15.21;75.95;101919.50;6178994;23;20033;-61
2022/05/26 04:12:27;;;;;;;12.68;3.08;;;;;;;15.23;75.64;101916.78;6179848;23;20005;-62
2022/05/26 04:14:53;;;;;;;18.25;3.22;;;;;;;15.23;75.73;101925.59;6179115;23;20031;-61
2022/05/26 04:17:18;;;;;;;18.58;3.25;;;;;;;15.24;75.74;101929.13;6179171;23;20016;-62
2022/05/26 04:19:43;;;;;;;17.77;3.35;;;;;;;15.34;75.60;101934.97;6179241;23;20048;-61
2022/05/26 04:22:15;;;;;;;12.65;3.40;;;;;;;15.44;75.03;101943.47;6152664;23;20059;-61
2022/05/26 04:24:41;;;;;;;16.27;3.22;;;;;;;15.45;75.11;101938.09;6177366;23;20025;-61
2022/05/26 04:27:07;;;;;;;20.05;3.65;;;;;;;15.50;75.19;101949.41;6178931;23;20078;-62
2022/05/26 04:29:33;;;;;;;16.08;4.25;;;;;;;15.54;75.02;101955.50;6152640;23;20083;-61
2022/05/26 04:31:59;;;;;;;14.90;3.20;;;;;;;15.58;74.58;101948.25;6177963;23;20001;-62
2022/05/26 04:34:24;;;;;;;14.05;3.42;;;;;;;15.56;74.83;101956.28;6179200;23;20253;-62
2022/05/26 04:36:49;;;;;;;11.75;3.00;;;;;;;15.64;74.64;101953.34;6179390;23;20726;-61
2022/05/26 04:39:16;;;;;;;16.27;3.30;;;;;;;15.59;74.55;101960.63;6151652;23;20012;-61
2022/05/26 04:41:42;;;;;;;12.63;2.70;;;;;;;15.53;74.70;101967.00;6179581;23;20008;-61
2022/05/26 04:44:09;;;;;;;15.70;3.33;;;;;;;15.61;74.51;101961.41;6178354;23;20025;-61
2022/05/26 04:46:35;;;;;;;14.65;2.80;;;;;;;15.60;74.43;101968.56;6179092;23;20001;-61
2022/05/26 04:49:00;;;;;;;18.45;3.10;;;;;;;15.62;74.27;101966.69;6179454;23;20013;-61
2022/05/26 04:51:25;;;;;;;14.38;3.55;;;;;;;15.66;74.00;101964.78;6150831;23;20100;-60
2022/05/26 04:53:51;;;;;;;13.07;3.33;;;;;;;15.68;74.06;101973.56;6177311;23;20044;-61
2022/05/26 04:56:16;;;;;;;18.55;3.80;;;;;;;15.66;73.80;101976.25;6178454;23;20009;-61
2022/05/26 04:58:41;;;;;;;12.38;3.20;;;;;;;15.70;73.57;101978.81;6178362;23;20032;-61
2022/05/26 05:01:14;;;;;;;12.48;3.08;;;;;;;15.76;73.57;101975.94;6176419;23;19993;-62
2022/05/26 05:03:39;;;;;;;12.75;3.17;;;;;;;15.77;73.61;101980.31;6179321;23;20005;-62
2022/05/26 05:06:05;;;;;;;10.75;2.33;;;;;;;15.85;73.36;101980.91;6152449;23;19993;-62
2022/05/26 05:08:30;;;;;;;12.18;2.67;;;;;;;15.77;73.76;101980.31;6152176;23;20013;-62
2022/05/26 05:10:55;;;;;;;14.98;2.92;;;;;;;15.77;73.58;101988.28;6178607;23;20075;-61
2022/05/26 05:13:21;;;;;;;13.27;3.00;;;;;;;15.66;74.03;101992.19;6178763;23;20009;-62
2022/05/26 05:15:52;;;;;;;13.13;2.75;;;;;;;15.68;73.99;101993.97;6178543;23;20008;-61
2022/05/26 05:18:18;;;;;;;12.70;2.58;;;;;;;15.66;74.00;101994.00;6178168;23;20009;-61
2022/05/26 05:20:43;;;;;;;14.27;2.83;;;;;;;15.72;74.02;101995.56;6178986;23;20012;-61
2022/05/26 05:23:11;;;;;;;14.75;2.95;;;;;;;15.73;74.03;102002.59;6177905;23;20092;-62
2022/05/26 05:25:44;;;;;;;12.55;3.22;;;;;;;15.79;73.52;101999.72;6178559;23;20072;-62
2022/05/26 05:28:18;;;;;;;13.98;2.75;;;;;;;15.85;73.71;102004.81;6177179;23;20338;-61
2022/05/26 05:30:54;;;;;;;7.45;2.70;;;;;;;15.81;74.21;102003.22;6177077;23;20012;-61
2022/05/26 05:33:44;;;;;;;20.08;2.70;;;;;;;15.88;74.16;102015.34;6178352;23;20028;-61
2022/05/26 05:36:14;;;;;;;13.90;3.10;;;;;;;15.84;74.50;102013.72;6177140;23;20005;-60
2022/05/26 05:38:40;;;;;;;11.88;2.83;;;;;;;15.94;73.77;102014.22;6177250;23;20012;-62
2022/05/26 05:41:07;;;;;;;11.48;2.45;;;;;;;15.98;73.71;102007.91;6178686;23;20005;-61
2022/05/26 05:43:33;;;;;;;11.80;2.92;;;;;;;16.02;73.74;102017.47;6178867;23;20001;-61
2022/05/26 05:45:58;;;;;;;12.52;2.60;;;;;;;16.00;73.50;102018.47;6177311;23;20504;-61
2022/05/26 05:48:24;;;;;;;16.83;3.17;;;;;;;16.04;73.80;102030.72;6178790;23;20512;-60
2022/05/26 05:50:51;;;;;;;21.83;3.00;;;;;;;16.00;73.34;102018.47;6178893;23;20009;-61
2022/05/26 05:53:16;;;;;;;13.82;2.90;;;;;;;16.04;73.25;102028.94;6176266;23;20001;-63
2022/05/26 05:55:42;;;;;;;17.15;3.10;;;;;;;16.15;73.52;102023.22;6178050;23;20392;-61
2022/05/26 05:58:08;;;;;;;12.32;2.90;;;;;;;16.07;73.46;102021.78;6178187;23;20012;-61
2022/05/26 06:00:34;;;;;;;12.35;2.47;;;;;;;16.13;73.42;102040.13;6178328;23;20303;-61
2022/05/26 06:03:00;;;;;;;16.95;2.58;;;;;;;16.29;72.78;102035.09;6178409;23;20005;-62
2022/05/26 06:05:25;;;;;;;10.82;3.00;;;;;;;16.26;73.06;102035.22;6178328;23;20083;-60
2022/05/26 06:07:50;;;;;;;18.67;3.45;;;;;;;16.30;72.93;102034.19;6178821;23;20080;-60
2022/05/26 06:10:16;;;;;;;12.30;3.20;;;;;;;16.35;72.52;102044.63;6177616;23;20036;-63
2022/05/26 06:12:42;;;;;;;9.88;2.55;;;;;;;16.39;72.00;102040.91;6178285;23;20492;-63
2022/05/26 06:15:07;;;;;;;17.05;2.80;;;;;;;16.41;71.82;102039.94;6177903;23;20005;-62
2022/05/26 06:17:33;;;;;;;14.13;3.08;;;;;;;16.48;71.76;102047.66;6176471;23;20514;-61
2022/05/26 06:19:59;;;;;;;16.60;2.88;;;;;;;16.53;71.58;102051.88;6178421;23;20001;-61
2022/05/26 06:22:24;;;;;;;15.20;2.85;;;;;;;16.60;71.94;102055.16;6177623;23;20056;-61
2022/05/26 06:24:50;;;;;;;13.98;2.83;;;;;;;16.57;71.42;102057.94;6175135;23;20084;-62
2022/05/26 06:30:04;;;;;;;10.77;2.47;;;;;;;16.89;70.57;102063.75;6177645;23;20084;-61
2022/05/26 06:38:00;;;;;;;11.05;2.47;;;;;;;17.48;68.02;102080.88;6177871;23;20064;-60
2022/05/26 06:40:28;;;;;;;10.68;2.83;;;;;;;17.55;67.62;102083.22;6178241;23;20076;-60
2022/05/26 06:42:55;;;;;;;10.60;2.45;;;;;;;17.46;68.14;102072.94;6178355;23;20334;-61
2022/05/26 06:45:22;;;;;;;9.95;2.35;;;;;;;17.60;68.01;102076.81;6177973;23;20009;-63
2022/05/26 06:47:47;;;;;;;9.40;2.45;;;;;;;17.51;68.15;102084.28;6177777;23;20001;-61
2022/05/26 06:50:13;;;;;;;10.35;2.25;;;;;;;17.42;67.92;102077.56;6177472;23;20382;-61
2022/05/26 06:52:39;;;;;;;11.40;2.30;;;;;;;17.33;68.38;102082.44;6178063;23;20425;-59
2022/05/26 06:55:06;;;;;;;14.05;2.50;;;;;;;17.23;68.28;102079.28;6176954;23;20001;-62
2022/05/26 06:57:31;;;;;;;12.20;2.75;;;;;;;17.20;68.51;102079.41;6178206;23;20709;-64
2022/05/26 06:59:57;;;;;;;15.48;2.60;;;;;;;17.20;69.08;102074.09;6179089;23;20001;-61
2022/05/26 07:02:24;;;;;;;11.40;2.40;;;;;;;17.20;69.78;102087.41;6177952;23;20426;-61
2022/05/26 07:04:49;;;;;;;11.45;2.60;;;;;;;17.20;69.18;102084.72;6178873;23;20012;-61
2022/05/26 07:07:15;;;;;;;7.57;2.05;;;;;;;17.22;68.47;102088.22;6178624;23;20009;-62
2022/05/26 07:09:41;;;;;;;16.08;2.72;;;;;;;17.35;67.82;102100.09;6177315;23;20016;-62
2022/05/26 07:12:08;;;;;;;10.25;2.53;;;;;;;17.51;68.34;102099.41;6177610;23;20075;-60
2022/05/26 07:14:33;;;;;;;11.75;2.60;;;;;;;17.61;67.91;102097.22;6178407;23;20009;-60
2022/05/26 07:16:59;;;;;;;9.10;2.45;;;;;;;17.61;67.53;102094.56;6180060;23;20017;-63
2022/05/26 07:19:24;;;;;;;6.80;2.17;;;;;;;17.62;66.66;102104.28;6179921;23;20001;-60
2022/05/26 07:21:49;;;;;;;10.90;2.53;;;;;;;17.67;66.05;102113.78;6180752;23;20300;-61
2022/05/26 07:24:20;;;;;;;9.63;2.10;;;;;;;17.57;66.03;102116.94;6179023;23;20326;-61
2022/05/26 07:26:46;;;;;;;8.43;2.20;;;;;;;17.71;66.03;102116.31;6180772;23;20268;-61
2022/05/26 07:29:11;;;;;;;9.13;1.98;;;;;;;17.76;66.47;102112.53;6179582;23;20012;-61
2022/05/26 07:31:37;;;;;;;9.65;2.58;;;;;;;17.73;66.69;102115.31;6180396;23;20005;-61
2022/05/26 07:34:03;;;;;;;8.63;1.98;;;;;;;17.86;65.77;102114.78;6179996;23;19989;-61
2022/05/26 07:42:02;;;;;;;7.85;1.90;;;;;;;18.08;64.46;102114.69;6178950;23;20040;-62
2022/05/26 07:44:29;;;;;;;6.13;2.22;;;;;;;18.05;65.46;102098.81;6180733;23;20068;-61
2022/05/26 07:46:56;;;;;;;7.85;2.45;;;;;;;18.07;64.51;102107.63;6177730;23;20013;-60
2022/05/26 07:49:21;;;;;;;9.27;2.00;;;;;;;18.08;64.76;102108.47;6179609;23;20009;-62
2022/05/26 07:51:47;;;;;;;8.50;2.17;;;;;;;18.26;64.55;102112.13;6180255;23;20005;-58
2022/05/26 07:54:12;;;;;;;10.30;2.28;;;;;;;18.41;64.08;102115.88;6178735;23;20079;-62
2022/05/26 07:56:38;;;;;;;7.95;2.08;;;;;;;18.58;63.99;102127.56;6179458;23;20013;-60
2022/05/26 07:59:04;;;;;;;11.40;2.58;;;;;;;18.66;63.58;102112.06;6179243;23;20383;-59
2022/05/26 08:01:30;;;;;;;9.18;1.95;;;;;;;18.84;63.28;102118.28;6179345;23;20001;-61
2022/05/26 08:03:56;;;;;;;11.93;2.50;;;;;;;19.07;62.80;102118.97;6178955;23;20078;-65
2022/05/26 08:06:21;;;;;;;13.10;3.00;;;;;;;19.02;62.07;102121.03;6179673;23;20044;-61
2022/05/26 08:08:47;;;;;;;8.77;2.33;;;;;;;18.86;62.24;102132.44;6152183;23;20334;-61
2022/05/26 08:11:12;;;;;;;12.27;2.38;;;;;;;18.86;61.72;102126.22;6179155;23;20433;-60
2022/05/26 08:13:38;;;;;;;10.85;2.10;;;;;;;18.96;61.82;102140.03;6179890;23;19997;-61
2022/05/26 08:16:05;;;;;;;11.15;2.35;;;;;;;19.30;61.92;102130.34;6178985;23;20207;-62
2022/05/26 08:18:31;;;;;;;9.30;2.28;;;;;;;19.32;62.25;102129.34;6179987;23;20419;-61
2022/05/26 08:21:05;;;;;;;8.90;2.17;;;;;;;19.22;62.21;102137.88;6179723;23;20009;-60
2022/05/26 08:23:30;;;;;;;11.18;2.40;;;;;;;19.25;61.38;102132.38;6177188;23;20001;-59
2022/05/26 08:25:56;;;;;;;12.90;2.95;;;;;;;19.25;60.75;102137.72;6152949;23;20075;-62
2022/05/26 08:28:21;;;;;;;12.10;2.58;;;;;;;19.31;60.49;102140.09;6178220;23;20005;-63
2022/05/26 08:30:47;;;;;;;7.07;2.03;;;;;;;19.19;60.05;102137.09;6178824;23;20089;-63
2022/05/26 08:33:12;;;;;;;10.32;2.55;;;;;;;18.96;61.01;102142.69;6178142;23;20080;-63
2022/05/26 08:35:37;;;;;;;9.15;2.38;;;;;;;18.97;60.22;102141.75;6179118;23;20024;-68
2022/05/26 08:38:03;;;;;;;10.18;2.25;;;;;;;19.24;60.49;102144.03;6150837;23;20364;-70
2022/05/26 08:40:35;;;;;;;6.97;2.00;;;;;;;19.32;60.16;102157.84;6177900;23;20472;-62
2022/05/26 08:43:02;;;;;;;8.40;2.17;;;;;;;19.67;59.12;102160.56;6177511;23;20087;-65
2022/05/26 08:45:30;;;;;;;9.50;2.53;;;;;;;19.66;59.02;102164.16;6178048;23;20005;-66
2022/05/26 08:47:56;;;;;;;13.32;2.55;;;;;;;19.88;59.12;102156.81;6177945;23;20009;-63
2022/05/26 08:50:27;;;;;;;9.82;2.30;;;;;;;20.05;57.92;102164.00;6178513;23;20019;-61
2022/05/26 08:53:20;;;;;;;7.32;2.20;;;;;;;20.34;57.92;102161.53;6177766;23;20009;-65
2022/05/26 08:55:48;;;;;;;6.82;2.20;;;;;;;20.09;57.40;102170.91;6176582;23;20021;-66
2022/05/26 08:58:17;;;;;;;10.60;2.30;;;;;;;20.01;58.56;102167.75;6176885;23;20001;-67
2022/05/26 09:00:45;;;;;;;9.00;2.13;;;;;;;20.13;58.78;102179.63;6179083;23;20419;-66
2022/05/26 09:03:25;;;;;;;12.40;2.53;;;;;;;19.98;58.34;102176.78;6178300;23;20544;-66
2022/05/26 09:05:57;;;;;;;11.52;2.65;;;;;;;19.83;58.16;102192.69;6176687;23;20441;-66
2022/05/26 09:14:01;;;;;;;12.40;2.65;;;;;;;19.83;57.84;102197.16;6177321;23;20009;-62
2022/05/26 09:16:28;;;;;;;7.20;2.17;;;;;;;19.90;57.82;102192.38;6178469;23;20072;-63
2022/05/26 09:19:17;;;;;;;11.80;2.28;;;;;;;19.60;58.20;102201.91;6177454;23;20005;-65
2022/05/26 09:21:45;;;;;;;8.68;2.20;;;;;;;20.04;57.88;102202.38;6178034;23;20001;-66
2022/05/26 09:24:25;;;;;;;8.93;2.33;;;;;;;20.03;56.47;102192.63;6175277;23;20079;-63
2022/05/26 09:26:59;;;;;;;11.32;2.17;;;;;;;19.91;56.81;102205.69;6151788;23;20100;-64
2022/05/26 09:29:30;;;;;;;6.82;2.20;;;;;;;19.94;57.86;102204.66;6178384;23;20005;-61
2022/05/26 09:31:57;;;;;;;12.65;2.53;;;;;;;20.20;57.37;102203.28;6177498;23;20021;-62
2022/05/26 09:34:34;;;;;;;7.15;2.00;;;;;;;20.18;55.92;102202.53;6178006;23;20367;-61
2022/05/26 09:37:03;;;;;;;5.40;1.50;;;;;;;20.07;56.44;102210.25;6154145;23;20005;-64
2022/05/26 09:39:42;;;;;;;7.80;1.75;;;;;;;20.26;54.53;102202.09;6176068;23;20005;-65
2022/05/26 09:42:16;;;;;;;;;;;;;;;20.28;55.85;102213.59;6177085;23;20009;-62
2022/05/26 09:44:51;;;;;;;5.80;1.80;;;;;;;20.45;54.56;102206.47;6177307;23;20321;-64
2022/05/26 09:47:25;;;;;;;4.95;1.75;;;;;;;20.41;54.32;102211.09;6178318;23;20005;-68
2022/05/26 09:49:53;;;;;;;12.60;2.15;;;;;;;20.55;53.88;102225.56;6176870;23;20403;-62
2022/05/26 09:52:25;;;;;;;8.15;1.88;;;;;;;20.25;54.49;102236.97;6176432;23;20001;-68
2022/05/26 09:55:09;;;;;;;8.18;2.00;;;;;;;20.16;56.08;102204.41;6176667;23;20016;-67
2022/05/26 09:57:34;;;;;;;10.18;2.30;;;;;;;20.45;55.23;102226.09;6177644;23;20430;-65
2022/05/26 09:59:59;;;;;;;8.07;2.05;;;;;;;20.48;54.80;102218.81;6177750;23;20136;-68
2022/05/26 10:02:45;;;;;;;7.65;2.10;;;;;;;20.49;53.50;102232.13;6150783;23;20406;-64
2022/05/26 10:05:25;;;;;;;7.43;2.00;;;;;;;20.73;52.71;102217.47;6174853;23;20012;-66
2022/05/26 10:08:18;;;;;;;6.35;2.03;;;;;;;20.89;51.95;102233.56;6177378;23;20028;-62
2022/05/26 10:11:09;;;;;;;8.25;1.58;;;;;;;21.01;52.02;102230.22;6176550;23;20005;-63
2022/05/26 10:14:08;;;;;;;6.60;1.90;;;;;;;21.05;51.03;102237.16;6132046;23;20369;-65
2022/05/26 10:17:00;;;;;;;6.78;2.10;;;;;;;20.97;52.37;102244.72;6176519;23;20028;-62
2022/05/26 10:19:34;;;;;;;11.13;2.05;;;;;;;21.00;51.82;102224.94;6176958;23;20117;-63
2022/05/26 10:22:21;;;;;;;8.43;2.20;;;;;;;21.01;51.65;102229.38;6178428;23;20449;-60
2022/05/26 10:25:02;;;;;;;8.23;2.00;;;;;;;20.84;53.04;102231.13;6175393;23;20005;-65
2022/05/26 10:27:39;;;;;;;7.35;1.83;;;;;;;21.10;51.28;102214.56;6151763;23;20013;-64
2022/05/26 10:30:46;;;;;;;10.98;2.28;;;;;;;20.90;51.15;102228.16;6149751;23;20012;-60
2022/05/26 10:33:22;;;;;;;9.75;2.05;;;;;;;21.01;50.92;102232.88;6056134;23;20017;-65
2022/05/26 10:36:05;;;;;;;10.80;2.00;;;;;;;20.74;51.38;102248.66;6140099;23;20422;-62
2022/05/26 10:38:54;;;;;;;7.82;2.08;;;;;;;20.64;52.30;102249.16;6151259;23;20005;-64
2022/05/26 10:41:44;;;;;;;7.53;1.67;;;;;;;20.86;51.53;102229.22;6175827;23;20086;-65
2022/05/26 10:44:21;;;;;;;11.15;2.00;;;;;;;20.82;51.00;102230.34;6177751;23;20012;-64
2022/05/26 10:47:02;;;;;;;10.02;2.15;;;;;;;21.04;51.75;102215.78;6151598;23;20005;-62
2022/05/26 10:49:35;;;;;;;12.70;2.45;;;;;;;21.21;51.28;102225.53;6178528;23;20393;-62
2022/05/26 10:52:10;;;;;;;7.28;1.77;;;;;;;21.24;52.01;102217.31;6153453;23;20004;-63
2022/05/26 10:54:38;;;;;;;8.07;1.92;;;;;;;21.06;51.00;102233.50;6153334;23;20011;-61
2022/05/26 10:57:13;;;;;;;7.10;2.13;;;;;;;20.82;50.96;102233.03;6178353;23;20012;-61
2022/05/26 11:00:02;;;;;;;10.15;1.90;;;;;;;20.79;50.73;102217.13;6179434;23;20107;-61
2022/05/26 11:02:57;;;;;;;6.97;1.98;;;;;;;20.60;50.32;102204.78;6178462;23;20039;-62
2022/05/26 11:05:32;;;;;;;7.70;1.80;;;;;;;20.67;49.27;102222.22;6167286;23;20096;-62
2022/05/26 11:08:30;;;;;;;7.68;1.88;;;;;;;20.51;49.31;102207.94;6178115;23;20012;-64
2022/05/26 11:11:12;;;;;;;4.15;1.15;;;;;;;20.82;49.05;102216.94;6176325;23;20013;-62
2022/05/26 11:13:57;;;;;;;9.88;1.83;;;;;;;20.43;50.22;102200.31;6179709;23;20016;-62
2022/05/26 11:19:50;;;;;;;4.22;1.15;;;;;;;20.45;49.85;102219.84;6179058;23;20460;-65
2022/05/26 11:22:16;;;;;;;7.72;1.48;;;;;;;20.82;49.89;102200.88;6177189;23;20032;-62
2022/05/26 11:24:49;;;;;;;5.03;1.67;;;;;;;20.90;51.07;102195.13;6179263;23;20452;-62
2022/05/26 11:27:17;;;;;;;8.88;1.90;;;;;;;21.09;50.99;102197.63;6176411;23;20430;-63
2022/05/26 11:29:49;;;;;;;11.95;1.73;;;;;;;21.29;48.57;102206.34;6179176;23;20084;-63
2022/05/26 11:38:09;;;;;;;10.02;1.52;;;;;;;22.19;47.30;102209.06;6177522;23;20059;-61
2022/05/26 11:40:43;;;;;;;7.57;1.85;;;;;;;22.30;47.70;102202.16;6177838;23;20031;-61
2022/05/26 11:43:09;;;;;;;7.80;1.45;;;;;;;22.26;48.09;102224.78;6177849;23;20016;-60
2022/05/26 11:45:49;;;;;;;8.38;1.98;;;;;;;22.47;47.51;102223.47;6176003;23;20001;-62
2022/05/26 11:48:30;;;;;;;4.15;1.38;;;;;;;22.55;48.37;102227.47;6178226;23;20016;-62
2022/05/26 11:51:00;;;;;;;8.00;1.85;;;;;;;22.40;47.73;102226.63;6178181;23;20538;-61
2022/05/26 11:53:35;;;;;;;6.15;1.80;;;;;;;22.28;47.11;102223.75;6152215;23;20339;-61
2022/05/26 11:56:30;;;;;;;4.97;1.25;;;;;;;22.07;46.98;102224.09;6178736;23;20019;-62
2022/05/26 11:59:17;;;;;;;7.50;1.27;;;;;;;21.96;46.81;102227.44;6177234;23;20016;-61
2022/05/26 12:01:45;;;;;;;3.17;1.20;;;;;;;22.09;46.74;102251.72;6177672;23;20500;-62
2022/05/26 12:04:25;;;;;;;2.92;1.30;;;;;;;22.30;46.55;102218.25;6177252;23;20099;-61
2022/05/26 12:07:22;;;;;;;8.93;1.70;;;;;;;22.02;46.46;102234.25;6179442;23;20410;-63
2022/05/26 12:09:58;;;;;;;5.75;1.10;;;;;;;22.42;45.92;102211.25;6168147;23;20350;-62
2022/05/26 12:12:24;;;;;;;5.90;1.40;;;;;;;22.58;46.46;102233.53;6177305;23;20001;-60
2022/05/26 12:14:50;;;;;;;6.55;2.08;;;;;;;22.10;47.62;102239.16;6178750;23;20012;-61